Share

Olpe, KS

Emporia Municipal (KEMP) Elev 1207 ft | 38.33 °N, 96.19 °W | Change Station

Current weather conditions updated 3 minutes ago

Clear
Clear
54 °F
Feels Like 54 °F
N
13
Wind Variable Wind from North
Sunrise 6:47 AM
Sunset 8:02 PM
Moon Waning Gibbous

Tomorrow is forecast to be Much Cooler than today. Chance of showers.

Pressure 30.00 in
Visibility 10.0 miles
Clouds Clear
Dew Point 37 °F
Humidity 53%
Rainfall 0.00 in
Snow Depth Not available.
UV 0 out of 16
Pollen 11.00 out of 12
Air Quality Not available.
Flu Activity Sporadic
METAR KEMP 170253Z AUTO 35011KT 10SM CLR 12/03 A3000 RMK AO2 PK WND 34027/0227 WSHFT 0211 SLP159 T01220028 53049

More Conditions Fewer Conditions

Pressure 30.00 in
Visibility 10.0 miles
Clouds Clear
Dew Point 37 °F
Humidity 53%
Rainfall 0.00 in
Snow Depth Not available.
UV 0 out of 16
Pollen 11.00 out of 12
Air Quality Not available.
Flu Activity Sporadic
METAR KEMP 170253Z AUTO 35011KT 10SM CLR 12/03 A3000 RMK AO2 PK WND 34027/0227 WSHFT 0211 SLP159 T01220028 53049

More Conditions Fewer Conditions

10-Day Forecast

Almanac

Astronomy

Apr. 16, 2014 Rise Set
Actual Time 6:47 AM CDT 8:02 PM CDT
Civil Twilight 6:20 AM CDT 8:29 PM CDT
Nautical Twilight 5:47 AM CDT 9:02 PM CDT
Astronomical Twilight 5:13 AM CDT 9:36 PM CDT
Moon 9:45 PM CDT (4/16) 7:36 AM CDT (4/16)
Length of Visible Light 14h 09m
Length of Day
13h 14m
Tomorrow will be 2m 21s longer.
Waning Gibbous, 96% of the Moon is Illuminated
Today
Waning Gibbous
Apr 22
Last Quarter
Apr 29
New
May 6
First Quarter
May 14
Full

Today's Extremes

State Highs State Lows

Community

  • symphony in blue....
    symphony in blue....
  • Dawn Surprise
    Dawn Surprise
  • Yucca delight
    Yucca delight
  • Sunset inside of the Ocean
    Sunset inside of the Ocean
  • Lunar eclipse 15 April 2014
    Lunar eclipse 15 April 2014

WunderPhotos

Upload Photos

1,701,825 photos uploaded!

WunderBlogs® & News

Nearby

Snow Depth

Station Depth Elevation
No new snow has been reported.

Coastal Water Temperatures

Place Temperature
No Stations Reporting

Earthquake Activity

City Distance Mag. Time & Date
Medford, Oklahoma 129 miles 3.0 5:38 PM CDT
2014-04-12
McCord, Oklahoma 132 miles 2.9 1:33 PM CDT
2014-04-12
Perry, Oklahoma 146 miles 3.0 4:00 AM CDT
2014-04-12
Perry, Oklahoma 147 miles 3.8 12:32 AM CDT
2014-04-12
Minimum magnitude displayed is 2.5.

Nearby Weather Stations

Station Location Temp. Dew Point Humidity Wind Precip. Elev Updated Type
T-K Weather Station West Hartford, Kansa, Hartford, KS 55.9 °F 40 °F 54% NNW  at  9.4 mph - / hr 1138 ft 9:56 PM CDT Normal
East Emporia Kansas, Emporia, KS 55.0 °F 40 °F 56% NW  at  8.3 mph - / hr 1112 ft 9:45 PM CDT Normal
RAWS TALLGRASS PRAIRIE KS, Strong City, KS 62 °F 32 °F 32% WSW  at  10 mph 0.00 in / hr 1230 ft 8:30 PM CDT MADIS

Show More Stations Show Fewer Stations

What do you think?

We're not finished. Please let us know what you like, what you don't like, and what you are still missing.